sensor_id;sensor_type;location;lat;lon;timestamp;pressure;altitude;pressure_sealevel;temperature;humidity
33506;BME280;19843;51.040;13.782;2023-04-29T00:00:56;99820.41;;;11.66;97.81
33506;BME280;19843;51.040;13.782;2023-04-29T00:03:23;99814.19;;;11.73;97.06
33506;BME280;19843;51.040;13.782;2023-04-29T00:05:54;99817.72;;;11.70;99.03
33506;BME280;19843;51.040;13.782;2023-04-29T00:08:22;99812.56;;;11.72;98.14
33506;BME280;19843;51.040;13.782;2023-04-29T00:10:50;99816.16;;;11.72;98.74
33506;BME280;19843;51.040;13.782;2023-04-29T00:13:17;99807.25;;;11.83;97.76
33506;BME280;19843;51.040;13.782;2023-04-29T00:15:45;99809.47;;;11.77;97.74
33506;BME280;19843;51.040;13.782;2023-04-29T00:18:13;99816.63;;;11.90;96.88
33506;BME280;19843;51.040;13.782;2023-04-29T00:20:41;99820.44;;;11.82;98.07
33506;BME280;19843;51.040;13.782;2023-04-29T00:23:09;99811.03;;;11.90;97.69
33506;BME280;19843;51.040;13.782;2023-04-29T00:25:36;99801.19;;;11.80;98.85
33506;BME280;19843;51.040;13.782;2023-04-29T00:28:04;99808.97;;;11.87;98.36
33506;BME280;19843;51.040;13.782;2023-04-29T00:30:31;99799.84;;;11.90;98.18
33506;BME280;19843;51.040;13.782;2023-04-29T00:33:00;99800.88;;;11.82;99.66
33506;BME280;19843;51.040;13.782;2023-04-29T00:35:29;99802.00;;;11.65;100.00
33506;BME280;19843;51.040;13.782;2023-04-29T00:37:56;99798.59;;;11.56;100.00
33506;BME280;19843;51.040;13.782;2023-04-29T00:40:24;99802.53;;;11.71;100.00
33506;BME280;19843;51.040;13.782;2023-04-29T00:42:51;99796.69;;;11.76;99.83
33506;BME280;19843;51.040;13.782;2023-04-29T00:45:19;99792.69;;;11.77;98.98
33506;BME280;19843;51.040;13.782;2023-04-29T00:47:46;99793.06;;;11.75;99.64
33506;BME280;19843;51.040;13.782;2023-04-29T00:50:13;99791.28;;;11.83;98.59
33506;BME280;19843;51.040;13.782;2023-04-29T00:52:43;99791.97;;;11.80;97.70
33506;BME280;19843;51.040;13.782;2023-04-29T00:55:11;99795.00;;;11.87;96.88
33506;BME280;19843;51.040;13.782;2023-04-29T00:57:39;99792.34;;;11.78;97.85
33506;BME280;19843;51.040;13.782;2023-04-29T01:00:08;99804.34;;;11.79;98.25
33506;BME280;19843;51.040;13.782;2023-04-29T01:02:36;99802.91;;;11.69;98.99
33506;BME280;19843;51.040;13.782;2023-04-29T01:05:04;99803.00;;;11.73;98.38
33506;BME280;19843;51.040;13.782;2023-04-29T01:07:38;99799.59;;;11.64;99.00
33506;BME280;19843;51.040;13.782;2023-04-29T01:10:13;99791.97;;;11.80;98.60
33506;BME280;19843;51.040;13.782;2023-04-29T01:12:44;99789.75;;;11.70;97.94
33506;BME280;19843;51.040;13.782;2023-04-29T01:15:20;99786.16;;;11.69;98.48
33506;BME280;19843;51.040;13.782;2023-04-29T01:17:59;99782.06;;;11.67;98.97
33506;BME280;19843;51.040;13.782;2023-04-29T01:20:27;99782.09;;;11.51;99.33
33506;BME280;19843;51.040;13.782;2023-04-29T01:22:55;99786.97;;;11.38;100.00
33506;BME280;19843;51.040;13.782;2023-04-29T01:25:24;99793.28;;;11.35;100.00
33506;BME280;19843;51.040;13.782;2023-04-29T01:27:56;99794.28;;;11.59;100.00
33506;BME280;19843;51.040;13.782;2023-04-29T01:30:34;99789.28;;;11.68;98.91
33506;BME280;19843;51.040;13.782;2023-04-29T01:33:08;99795.06;;;11.75;98.65
33506;BME280;19843;51.040;13.782;2023-04-29T01:35:47;99788.75;;;11.78;98.74
33506;BME280;19843;51.040;13.782;2023-04-29T01:38:25;99795.97;;;11.79;98.30
33506;BME280;19843;51.040;13.782;2023-04-29T01:41:08;99802.53;;;11.71;99.35
33506;BME280;19843;51.040;13.782;2023-04-29T01:43:37;99809.84;;;11.75;98.76
33506;BME280;19843;51.040;13.782;2023-04-29T01:46:08;99810.31;;;11.77;99.56
33506;BME280;19843;51.040;13.782;2023-04-29T01:48:36;99818.22;;;11.75;99.34
33506;BME280;19843;51.040;13.782;2023-04-29T01:51:04;99814.84;;;11.35;100.00
33506;BME280;19843;51.040;13.782;2023-04-29T01:53:32;99817.09;;;11.45;100.00
33506;BME280;19843;51.040;13.782;2023-04-29T01:56:01;99825.53;;;11.48;100.00
33506;BME280;19843;51.040;13.782;2023-04-29T01:58:28;99817.59;;;11.66;100.00
33506;BME280;19843;51.040;13.782;2023-04-29T02:00:56;99816.81;;;11.66;100.00
33506;BME280;19843;51.040;13.782;2023-04-29T02:03:23;99825.31;;;10.94;100.00
33506;BME280;19843;51.040;13.782;2023-04-29T02:05:51;99821.69;;;11.21;100.00
33506;BME280;19843;51.040;13.782;2023-04-29T02:08:18;99828.34;;;11.17;100.00
33506;BME280;19843;51.040;13.782;2023-04-29T02:10:53;99824.53;;;11.25;100.00
33506;BME280;19843;51.040;13.782;2023-04-29T02:13:21;99833.94;;;11.48;100.00
33506;BME280;19843;51.040;13.782;2023-04-29T02:15:52;99840.53;;;11.56;100.00
33506;BME280;19843;51.040;13.782;2023-04-29T02:18:20;99857.03;;;11.61;100.00
33506;BME280;19843;51.040;13.782;2023-04-29T02:20:47;99848.47;;;11.54;100.00
33506;BME280;19843;51.040;13.782;2023-04-29T02:23:16;99841.31;;;11.25;100.00
33506;BME280;19843;51.040;13.782;2023-04-29T02:25:44;99848.31;;;11.03;100.00
33506;BME280;19843;51.040;13.782;2023-04-29T02:28:11;99843.66;;;11.23;100.00
33506;BME280;19843;51.040;13.782;2023-04-29T02:30:40;99828.34;;;11.33;100.00
33506;BME280;19843;51.040;13.782;2023-04-29T02:33:07;99821.84;;;11.28;100.00
33506;BME280;19843;51.040;13.782;2023-04-29T02:35:35;99822.69;;;11.45;100.00
33506;BME280;19843;51.040;13.782;2023-04-29T02:38:03;99832.03;;;11.52;100.00
33506;BME280;19843;51.040;13.782;2023-04-29T02:40:30;99817.81;;;11.42;100.00
33506;BME280;19843;51.040;13.782;2023-04-29T02:42:58;99809.78;;;11.56;100.00
33506;BME280;19843;51.040;13.782;2023-04-29T02:45:26;99815.38;;;11.56;100.00
33506;BME280;19843;51.040;13.782;2023-04-29T02:47:55;99809.25;;;11.35;100.00
33506;BME280;19843;51.040;13.782;2023-04-29T02:50:22;99805.72;;;11.22;100.00
33506;BME280;19843;51.040;13.782;2023-04-29T02:52:51;99805.19;;;11.32;100.00
33506;BME280;19843;51.040;13.782;2023-04-29T02:55:18;99799.22;;;11.34;100.00
33506;BME280;19843;51.040;13.782;2023-04-29T02:57:46;99805.16;;;11.48;100.00
33506;BME280;19843;51.040;13.782;2023-04-29T03:00:13;99814.91;;;11.22;100.00
33506;BME280;19843;51.040;13.782;2023-04-29T03:02:41;99818.19;;;11.40;100.00
33506;BME280;19843;51.040;13.782;2023-04-29T03:05:10;99815.44;;;11.28;100.00
33506;BME280;19843;51.040;13.782;2023-04-29T03:07:37;99816.09;;;11.37;100.00
33506;BME280;19843;51.040;13.782;2023-04-29T03:10:06;99813.03;;;11.42;100.00
33506;BME280;19843;51.040;13.782;2023-04-29T03:12:34;99811.94;;;11.31;100.00
33506;BME280;19843;51.040;13.782;2023-04-29T03:15:01;99802.81;;;11.34;100.00
33506;BME280;19843;51.040;13.782;2023-04-29T03:17:30;99802.31;;;11.44;100.00
33506;BME280;19843;51.040;13.782;2023-04-29T03:19:58;99803.66;;;11.50;100.00
33506;BME280;19843;51.040;13.782;2023-04-29T03:22:26;99801.28;;;11.52;100.00
33506;BME280;19843;51.040;13.782;2023-04-29T03:24:54;99791.94;;;11.45;100.00
33506;BME280;19843;51.040;13.782;2023-04-29T03:27:21;99787.72;;;11.35;100.00
33506;BME280;19843;51.040;13.782;2023-04-29T03:29:49;99790.84;;;11.34;100.00
33506;BME280;19843;51.040;13.782;2023-04-29T03:32:16;99792.38;;;11.47;100.00
33506;BME280;19843;51.040;13.782;2023-04-29T03:34:44;99795.81;;;11.56;100.00
33506;BME280;19843;51.040;13.782;2023-04-29T03:37:11;99798.16;;;11.38;100.00
33506;BME280;19843;51.040;13.782;2023-04-29T03:39:40;99795.19;;;11.31;100.00
33506;BME280;19843;51.040;13.782;2023-04-29T03:42:08;99790.22;;;11.56;100.00
33506;BME280;19843;51.040;13.782;2023-04-29T03:44:35;99793.56;;;11.46;100.00
33506;BME280;19843;51.040;13.782;2023-04-29T03:47:02;99785.88;;;11.43;100.00
33506;BME280;19843;51.040;13.782;2023-04-29T03:49:30;99789.50;;;11.43;100.00
33506;BME280;19843;51.040;13.782;2023-04-29T03:51:57;99790.91;;;11.53;100.00
33506;BME280;19843;51.040;13.782;2023-04-29T03:54:25;99784.28;;;11.42;100.00
33506;BME280;19843;51.040;13.782;2023-04-29T03:56:54;99794.47;;;11.50;100.00
33506;BME280;19843;51.040;13.782;2023-04-29T03:59:21;99787.50;;;11.60;100.00
33506;BME280;19843;51.040;13.782;2023-04-29T04:01:49;99784.88;;;11.67;100.00
33506;BME280;19843;51.040;13.782;2023-04-29T04:04:17;99792.81;;;11.65;100.00
33506;BME280;19843;51.040;13.782;2023-04-29T04:06:45;99796.06;;;11.67;100.00
33506;BME280;19843;51.040;13.782;2023-04-29T04:09:16;99792.25;;;11.75;100.00
33506;BME280;19843;51.040;13.782;2023-04-29T04:11:44;99793.16;;;11.79;100.00
33506;BME280;19843;51.040;13.782;2023-04-29T04:14:13;99791.59;;;11.82;100.00
33506;BME280;19843;51.040;13.782;2023-04-29T04:16:40;99786.94;;;11.86;100.00
33506;BME280;19843;51.040;13.782;2023-04-29T04:19:08;99794.09;;;11.83;100.00
33506;BME280;19843;51.040;13.782;2023-04-29T04:21:36;99791.72;;;11.85;100.00
33506;BME280;19843;51.040;13.782;2023-04-29T04:24:04;99793.00;;;11.88;100.00
33506;BME280;19843;51.040;13.782;2023-04-29T04:26:31;99797.03;;;11.90;100.00
33506;BME280;19843;51.040;13.782;2023-04-29T04:28:59;99795.44;;;11.73;100.00
33506;BME280;19843;51.040;13.782;2023-04-29T04:31:27;99799.38;;;11.72;100.00
33506;BME280;19843;51.040;13.782;2023-04-29T04:33:56;99799.13;;;11.93;100.00
33506;BME280;19843;51.040;13.782;2023-04-29T04:36:25;99795.72;;;11.84;100.00
33506;BME280;19843;51.040;13.782;2023-04-29T04:38:52;99803.41;;;12.07;100.00
33506;BME280;19843;51.040;13.782;2023-04-29T04:41:19;99802.53;;;12.02;100.00
33506;BME280;19843;51.040;13.782;2023-04-29T04:43:47;99804.31;;;12.11;100.00
33506;BME280;19843;51.040;13.782;2023-04-29T04:46:15;99803.75;;;12.21;100.00
33506;BME280;19843;51.040;13.782;2023-04-29T04:48:44;99801.88;;;12.09;100.00
33506;BME280;19843;51.040;13.782;2023-04-29T04:51:12;99810.56;;;12.23;100.00
33506;BME280;19843;51.040;13.782;2023-04-29T04:53:40;99816.69;;;12.29;100.00
33506;BME280;19843;51.040;13.782;2023-04-29T04:56:07;99803.28;;;12.19;100.00
33506;BME280;19843;51.040;13.782;2023-04-29T04:58:35;99812.41;;;12.16;100.00
33506;BME280;19843;51.040;13.782;2023-04-29T05:01:02;99806.69;;;12.28;100.00
33506;BME280;19843;51.040;13.782;2023-04-29T05:03:30;99806.75;;;12.32;100.00
33506;BME280;19843;51.040;13.782;2023-04-29T05:05:59;99815.03;;;12.09;100.00
33506;BME280;19843;51.040;13.782;2023-04-29T05:08:27;99820.66;;;12.28;100.00
33506;BME280;19843;51.040;13.782;2023-04-29T05:10:54;99816.94;;;12.40;100.00
33506;BME280;19843;51.040;13.782;2023-04-29T05:13:22;99818.44;;;12.18;100.00
33506;BME280;19843;51.040;13.782;2023-04-29T05:15:51;99816.78;;;12.33;100.00
33506;BME280;19843;51.040;13.782;2023-04-29T05:18:19;99818.03;;;12.35;100.00
33506;BME280;19843;51.040;13.782;2023-04-29T05:20:46;99823.84;;;12.26;100.00
33506;BME280;19843;51.040;13.782;2023-04-29T05:23:15;99820.97;;;12.23;100.00
33506;BME280;19843;51.040;13.782;2023-04-29T05:25:42;99824.97;;;12.41;100.00
33506;BME280;19843;51.040;13.782;2023-04-29T05:28:09;99827.56;;;12.50;100.00
33506;BME280;19843;51.040;13.782;2023-04-29T05:30:37;99824.88;;;12.57;100.00
33506;BME280;19843;51.040;13.782;2023-04-29T05:33:04;99833.00;;;12.62;100.00
33506;BME280;19843;51.040;13.782;2023-04-29T05:35:32;99831.53;;;12.68;100.00
33506;BME280;19843;51.040;13.782;2023-04-29T05:37:59;99827.84;;;12.64;100.00
33506;BME280;19843;51.040;13.782;2023-04-29T05:40:28;99831.03;;;12.82;100.00
33506;BME280;19843;51.040;13.782;2023-04-29T05:42:55;99841.25;;;12.94;100.00
33506;BME280;19843;51.040;13.782;2023-04-29T05:45:23;99828.16;;;13.21;100.00
33506;BME280;19843;51.040;13.782;2023-04-29T05:47:51;99836.41;;;13.56;100.00
33506;BME280;19843;51.040;13.782;2023-04-29T05:50:18;99842.09;;;13.86;100.00
33506;BME280;19843;51.040;13.782;2023-04-29T05:52:46;99831.53;;;13.76;100.00
33506;BME280;19843;51.040;13.782;2023-04-29T05:55:13;99834.22;;;13.69;100.00
33506;BME280;19843;51.040;13.782;2023-04-29T05:57:42;99835.44;;;13.45;100.00
33506;BME280;19843;51.040;13.782;2023-04-29T06:00:10;99843.59;;;13.30;100.00
33506;BME280;19843;51.040;13.782;2023-04-29T06:02:38;99839.41;;;13.44;100.00
33506;BME280;19843;51.040;13.782;2023-04-29T06:05:23;99847.94;;;13.74;100.00
33506;BME280;19843;51.040;13.782;2023-04-29T06:07:51;99839.31;;;14.13;100.00
33506;BME280;19843;51.040;13.782;2023-04-29T06:10:19;99844.66;;;14.48;99.36
33506;BME280;19843;51.040;13.782;2023-04-29T06:12:47;99842.56;;;14.71;96.89
33506;BME280;19843;51.040;13.782;2023-04-29T06:15:16;99849.00;;;14.15;100.00
33506;BME280;19843;51.040;13.782;2023-04-29T06:17:44;99861.13;;;14.23;100.00
33506;BME280;19843;51.040;13.782;2023-04-29T06:20:12;99857.03;;;14.17;100.00
33506;BME280;19843;51.040;13.782;2023-04-29T06:22:39;99848.38;;;14.29;100.00
33506;BME280;19843;51.040;13.782;2023-04-29T06:25:07;99850.91;;;14.38;100.00
33506;BME280;19843;51.040;13.782;2023-04-29T06:27:35;99855.13;;;14.51;100.00
33506;BME280;19843;51.040;13.782;2023-04-29T06:30:05;99857.25;;;14.57;100.00
33506;BME280;19843;51.040;13.782;2023-04-29T06:32:32;99858.19;;;14.42;100.00
33506;BME280;19843;51.040;13.782;2023-04-29T06:35:00;99863.94;;;14.23;100.00
33506;BME280;19843;51.040;13.782;2023-04-29T06:37:27;99866.56;;;14.99;97.95
33506;BME280;19843;51.040;13.782;2023-04-29T06:39:55;99870.63;;;15.01;97.58
33506;BME280;19843;51.040;13.782;2023-04-29T06:42:22;99859.25;;;14.91;96.85
33506;BME280;19843;51.040;13.782;2023-04-29T06:44:49;99862.81;;;15.21;94.55
33506;BME280;19843;51.040;13.782;2023-04-29T06:47:18;99865.38;;;15.00;94.65
33506;BME280;19843;51.040;13.782;2023-04-29T06:49:46;99869.41;;;14.69;97.06
33506;BME280;19843;51.040;13.782;2023-04-29T06:52:14;99863.22;;;14.56;99.97
33506;BME280;19843;51.040;13.782;2023-04-29T06:54:41;99873.16;;;13.97;100.00
33506;BME280;19843;51.040;13.782;2023-04-29T06:57:09;99869.09;;;13.94;100.00
33506;BME280;19843;51.040;13.782;2023-04-29T06:59:36;99867.44;;;14.16;100.00
33506;BME280;19843;51.040;13.782;2023-04-29T07:02:04;99876.63;;;14.40;100.00
33506;BME280;19843;51.040;13.782;2023-04-29T07:04:32;99874.75;;;14.21;100.00
33506;BME280;19843;51.040;13.782;2023-04-29T07:07:02;99874.69;;;14.47;100.00
33506;BME280;19843;51.040;13.782;2023-04-29T07:09:30;99880.84;;;14.26;100.00
33506;BME280;19843;51.040;13.782;2023-04-29T07:11:58;99874.28;;;13.92;100.00
33506;BME280;19843;51.040;13.782;2023-04-29T07:14:25;99873.41;;;14.15;100.00
33506;BME280;19843;51.040;13.782;2023-04-29T07:16:53;99880.41;;;14.51;100.00
33506;BME280;19843;51.040;13.782;2023-04-29T07:19:21;99883.44;;;14.39;100.00
33506;BME280;19843;51.040;13.782;2023-04-29T07:21:49;99887.78;;;14.36;100.00
33506;BME280;19843;51.040;13.782;2023-04-29T07:24:17;99883.72;;;14.33;100.00
33506;BME280;19843;51.040;13.782;2023-04-29T07:26:44;99889.06;;;13.89;100.00
33506;BME280;19843;51.040;13.782;2023-04-29T07:29:12;99895.44;;;14.13;100.00
33506;BME280;19843;51.040;13.782;2023-04-29T07:31:39;99897.38;;;13.59;100.00
33506;BME280;19843;51.040;13.782;2023-04-29T07:34:07;99901.34;;;13.58;100.00
33506;BME280;19843;51.040;13.782;2023-04-29T07:36:34;99904.59;;;13.60;100.00
33506;BME280;19843;51.040;13.782;2023-04-29T07:39:03;99904.44;;;13.99;100.00
33506;BME280;19843;51.040;13.782;2023-04-29T07:41:31;99908.69;;;14.12;100.00
33506;BME280;19843;51.040;13.782;2023-04-29T07:43:58;99902.22;;;13.62;100.00
33506;BME280;19843;51.040;13.782;2023-04-29T07:46:25;99912.56;;;14.04;100.00
33506;BME280;19843;51.040;13.782;2023-04-29T07:48:53;99912.09;;;14.25;100.00
33506;BME280;19843;51.040;13.782;2023-04-29T07:51:21;99914.47;;;14.23;100.00
33506;BME280;19843;51.040;13.782;2023-04-29T07:53:48;99913.50;;;14.65;100.00
33506;BME280;19843;51.040;13.782;2023-04-29T07:56:17;99918.66;;;14.09;100.00
33506;BME280;19843;51.040;13.782;2023-04-29T07:58:45;99929.75;;;14.25;100.00
33506;BME280;19843;51.040;13.782;2023-04-29T08:01:12;99917.47;;;14.11;100.00
33506;BME280;19843;51.040;13.782;2023-04-29T08:03:40;99925.72;;;14.49;100.00
33506;BME280;19843;51.040;13.782;2023-04-29T08:06:08;99932.44;;;14.18;100.00
33506;BME280;19843;51.040;13.782;2023-04-29T08:08:36;99935.31;;;14.22;100.00
33506;BME280;19843;51.040;13.782;2023-04-29T08:11:04;99935.25;;;14.45;100.00
33506;BME280;19843;51.040;13.782;2023-04-29T08:13:33;99929.19;;;14.43;100.00
33506;BME280;19843;51.040;13.782;2023-04-29T08:16:00;99937.06;;;14.33;100.00
33506;BME280;19843;51.040;13.782;2023-04-29T08:18:28;99936.66;;;13.82;100.00
33506;BME280;19843;51.040;13.782;2023-04-29T08:20:55;99945.34;;;14.00;100.00
33506;BME280;19843;51.040;13.782;2023-04-29T08:23:23;99948.84;;;14.43;100.00
33506;BME280;19843;51.040;13.782;2023-04-29T08:25:50;99955.44;;;14.77;100.00
33506;BME280;19843;51.040;13.782;2023-04-29T08:28:18;99952.69;;;14.84;97.09
33506;BME280;19843;51.040;13.782;2023-04-29T08:30:47;99950.69;;;14.31;98.02
33506;BME280;19843;51.040;13.782;2023-04-29T08:33:14;99956.16;;;14.21;100.00
33506;BME280;19843;51.040;13.782;2023-04-29T08:35:42;99967.47;;;14.28;100.00
33506;BME280;19843;51.040;13.782;2023-04-29T08:38:09;99969.72;;;14.19;100.00
33506;BME280;19843;51.040;13.782;2023-04-29T08:40:41;99970.41;;;13.66;100.00
33506;BME280;19843;51.040;13.782;2023-04-29T08:43:09;99974.66;;;13.79;100.00
33506;BME280;19843;51.040;13.782;2023-04-29T08:45:36;99968.06;;;13.91;100.00
33506;BME280;19843;51.040;13.782;2023-04-29T08:48:06;99978.78;;;13.86;100.00
33506;BME280;19843;51.040;13.782;2023-04-29T08:50:40;99983.13;;;14.29;100.00
33506;BME280;19843;51.040;13.782;2023-04-29T08:53:08;99982.25;;;14.48;100.00
33506;BME280;19843;51.040;13.782;2023-04-29T08:55:40;99987.25;;;14.35;100.00
33506;BME280;19843;51.040;13.782;2023-04-29T08:58:09;99981.81;;;14.46;100.00
33506;BME280;19843;51.040;13.782;2023-04-29T09:00:41;99985.88;;;13.79;100.00
33506;BME280;19843;51.040;13.782;2023-04-29T09:03:21;99987.34;;;13.50;100.00
33506;BME280;19843;51.040;13.782;2023-04-29T09:05:52;99996.28;;;13.79;100.00
33506;BME280;19843;51.040;13.782;2023-04-29T09:08:22;99999.19;;;14.05;100.00
33506;BME280;19843;51.040;13.782;2023-04-29T09:10:50;99996.81;;;14.07;100.00
33506;BME280;19843;51.040;13.782;2023-04-29T09:13:23;99999.19;;;13.82;100.00
33506;BME280;19843;51.040;13.782;2023-04-29T09:15:52;100003.84;;;13.98;100.00
33506;BME280;19843;51.040;13.782;2023-04-29T09:18:41;99999.97;;;14.29;98.87
33506;BME280;19843;51.040;13.782;2023-04-29T09:21:14;100011.00;;;13.72;99.36
33506;BME280;19843;51.040;13.782;2023-04-29T09:23:44;100001.19;;;13.82;100.00
33506;BME280;19843;51.040;13.782;2023-04-29T09:26:13;100008.47;;;13.67;100.00
33506;BME280;19843;51.040;13.782;2023-04-29T09:29:04;68504.00;;;-143.16;100.00
33506;BME280;19843;51.040;13.782;2023-04-29T09:32:30;68504.00;;;-143.16;100.00
33506;BME280;19843;51.040;13.782;2023-04-29T09:36:33;68504.00;;;-143.16;100.00
33506;BME280;19843;51.040;13.782;2023-04-29T09:40:00;68504.00;;;-143.16;100.00
33506;BME280;19843;51.040;13.782;2023-04-29T09:43:26;68504.00;;;-143.16;100.00
33506;BME280;19843;51.040;13.782;2023-04-29T09:46:56;68504.00;;;-143.16;100.00
33506;BME280;19843;51.040;13.782;2023-04-29T09:50:25;68504.00;;;-143.16;100.00
33506;BME280;19843;51.040;13.782;2023-04-29T09:53:51;68504.00;;;-143.16;100.00
33506;BME280;19843;51.040;13.782;2023-04-29T09:57:19;68504.00;;;-143.16;100.00
33506;BME280;19843;51.040;13.782;2023-04-29T10:00:49;68504.00;;;-143.16;100.00
33506;BME280;19843;51.040;13.782;2023-04-29T10:04:19;68504.00;;;-143.16;100.00
33506;BME280;19843;51.040;13.782;2023-04-29T10:07:48;68504.00;;;-143.16;100.00
33506;BME280;19843;51.040;13.782;2023-04-29T10:11:15;68504.00;;;-143.16;100.00
33506;BME280;19843;51.040;13.782;2023-04-29T10:14:44;68504.00;;;-143.16;100.00
33506;BME280;19843;51.040;13.782;2023-04-29T10:18:17;68504.00;;;-143.16;100.00
33506;BME280;19843;51.040;13.782;2023-04-29T10:21:46;68504.00;;;-143.16;100.00
33506;BME280;19843;51.040;13.782;2023-04-29T10:25:17;68504.00;;;-143.16;100.00
33506;BME280;19843;51.040;13.782;2023-04-29T10:28:44;68504.00;;;-143.16;100.00
33506;BME280;19843;51.040;13.782;2023-04-29T10:32:12;68504.00;;;-143.16;100.00
33506;BME280;19843;51.040;13.782;2023-04-29T10:35:39;68504.00;;;-143.16;100.00
33506;BME280;19843;51.040;13.782;2023-04-29T10:39:18;68504.00;;;-143.16;100.00
33506;BME280;19843;51.040;13.782;2023-04-29T10:42:49;68504.00;;;-143.16;100.00
33506;BME280;19843;51.040;13.782;2023-04-29T10:46:23;68504.00;;;-143.16;100.00
33506;BME280;19843;51.040;13.782;2023-04-29T10:50:00;68504.00;;;-143.16;100.00
33506;BME280;19843;51.040;13.782;2023-04-29T10:53:26;68504.00;;;-143.16;100.00
33506;BME280;19843;51.040;13.782;2023-04-29T10:56:55;68504.00;;;-143.16;100.00
33506;BME280;19843;51.040;13.782;2023-04-29T11:00:42;68504.00;;;-143.16;100.00
33506;BME280;19843;51.040;13.782;2023-04-29T11:04:28;68504.00;;;-143.16;100.00
33506;BME280;19843;51.040;13.782;2023-04-29T11:08:07;68504.00;;;-143.16;100.00
33506;BME280;19843;51.040;13.782;2023-04-29T11:11:47;68504.00;;;-143.16;100.00
33506;BME280;19843;51.040;13.782;2023-04-29T11:15:18;68504.00;;;-143.16;100.00
33506;BME280;19843;51.040;13.782;2023-04-29T11:19:03;68504.00;;;-143.16;100.00
33506;BME280;19843;51.040;13.782;2023-04-29T11:22:31;68504.00;;;-143.16;100.00
33506;BME280;19843;51.040;13.782;2023-04-29T11:25:58;68504.00;;;-143.16;100.00
33506;BME280;19843;51.040;13.782;2023-04-29T11:29:26;68504.00;;;-143.16;100.00
33506;BME280;19843;51.040;13.782;2023-04-29T11:32:55;68504.00;;;-143.16;100.00
33506;BME280;19843;51.040;13.782;2023-04-29T11:36:24;68504.00;;;-143.16;100.00
33506;BME280;19843;51.040;13.782;2023-04-29T11:39:51;68504.00;;;-143.16;100.00
33506;BME280;19843;51.040;13.782;2023-04-29T11:43:23;68504.00;;;-143.16;100.00
33506;BME280;19843;51.040;13.782;2023-04-29T11:46:51;68504.00;;;-143.16;100.00
33506;BME280;19843;51.040;13.782;2023-04-29T11:50:18;68504.00;;;-143.16;100.00
33506;BME280;19843;51.040;13.782;2023-04-29T11:53:45;68504.00;;;-143.16;100.00
33506;BME280;19843;51.040;13.782;2023-04-29T11:57:11;68504.00;;;-143.16;100.00
33506;BME280;19843;51.040;13.782;2023-04-29T12:00:39;68504.00;;;-143.16;100.00
33506;BME280;19843;51.040;13.782;2023-04-29T12:04:10;68504.00;;;-143.16;100.00
33506;BME280;19843;51.040;13.782;2023-04-29T12:07:37;68504.00;;;-143.16;100.00
33506;BME280;19843;51.040;13.782;2023-04-29T12:11:05;68504.00;;;-143.16;100.00
33506;BME280;19843;51.040;13.782;2023-04-29T12:14:32;68504.00;;;-143.16;100.00
33506;BME280;19843;51.040;13.782;2023-04-29T12:17:58;68504.00;;;-143.16;100.00
33506;BME280;19843;51.040;13.782;2023-04-29T12:21:28;68504.00;;;-143.16;100.00
33506;BME280;19843;51.040;13.782;2023-04-29T12:24:56;68504.00;;;-143.16;100.00
33506;BME280;19843;51.040;13.782;2023-04-29T12:28:22;68504.00;;;-143.16;100.00
33506;BME280;19843;51.040;13.782;2023-04-29T12:31:49;68504.00;;;-143.16;100.00
33506;BME280;19843;51.040;13.782;2023-04-29T12:35:16;68504.00;;;-143.16;100.00
33506;BME280;19843;51.040;13.782;2023-04-29T12:38:46;68504.00;;;-143.16;100.00
33506;BME280;19843;51.040;13.782;2023-04-29T12:42:15;68504.00;;;-143.16;100.00
33506;BME280;19843;51.040;13.782;2023-04-29T12:45:42;68504.00;;;-143.16;100.00
33506;BME280;19843;51.040;13.782;2023-04-29T12:49:08;68504.00;;;-143.16;100.00
33506;BME280;19843;51.040;13.782;2023-04-29T12:52:35;68504.00;;;-143.16;100.00
33506;BME280;19843;51.040;13.782;2023-04-29T12:56:03;68504.00;;;-143.16;100.00
33506;BME280;19843;51.040;13.782;2023-04-29T12:59:29;68504.00;;;-143.16;100.00
33506;BME280;19843;51.040;13.782;2023-04-29T13:02:55;68504.00;;;-143.16;100.00
33506;BME280;19843;51.040;13.782;2023-04-29T13:06:21;68504.00;;;-143.16;100.00
33506;BME280;19843;51.040;13.782;2023-04-29T13:09:47;68504.00;;;-143.16;100.00
33506;BME280;19843;51.040;13.782;2023-04-29T13:13:15;68504.00;;;-143.16;100.00
33506;BME280;19843;51.040;13.782;2023-04-29T13:16:41;68504.00;;;-143.16;100.00
33506;BME280;19843;51.040;13.782;2023-04-29T13:20:07;68504.00;;;-143.16;100.00
33506;BME280;19843;51.040;13.782;2023-04-29T13:23:35;68504.00;;;-143.16;100.00
33506;BME280;19843;51.040;13.782;2023-04-29T13:27:01;68504.00;;;-143.16;100.00
33506;BME280;19843;51.040;13.782;2023-04-29T13:30:30;68504.00;;;-143.16;100.00
33506;BME280;19843;51.040;13.782;2023-04-29T13:33:08;100008.47;;;13.67;100.00
33506;BME280;19843;51.040;13.782;2023-04-29T13:35:39;100241.25;;;12.13;91.10
33506;BME280;19843;51.040;13.782;2023-04-29T13:38:07;100250.16;;;11.78;95.75
33506;BME280;19843;51.040;13.782;2023-04-29T13:40:35;100249.69;;;11.76;95.30
33506;BME280;19843;51.040;13.782;2023-04-29T13:43:09;100257.53;;;11.83;96.61
33506;BME280;19843;51.040;13.782;2023-04-29T13:45:45;100262.41;;;11.61;97.36
33506;BME280;19843;51.040;13.782;2023-04-29T13:48:13;100262.97;;;11.91;97.15
33506;BME280;19843;51.040;13.782;2023-04-29T13:51:01;100256.41;;;11.35;100.00
33506;BME280;19843;51.040;13.782;2023-04-29T13:53:31;100264.63;;;11.68;100.00
33506;BME280;19843;51.040;13.782;2023-04-29T13:56:18;100266.88;;;11.50;100.00